createdAt,value
2023-03-04T00:01:46.718Z,2.62
2023-03-04T00:03:51.303Z,2.48
2023-03-04T00:05:56.138Z,2.50
2023-03-04T00:08:03.657Z,2.51
2023-03-04T00:10:09.909Z,2.49
2023-03-04T00:12:15.509Z,2.39
2023-03-04T00:14:20.304Z,2.34
2023-03-04T00:16:27.366Z,2.24
2023-03-04T00:18:35.128Z,2.25
2023-03-04T00:20:39.916Z,2.12
2023-03-04T00:22:44.699Z,2.12
2023-03-04T00:24:52.253Z,2.07
2023-03-04T00:26:57.024Z,2.02
2023-03-04T00:29:01.857Z,2.00
2023-03-04T00:31:06.880Z,1.97
2023-03-04T00:33:11.736Z,1.88
2023-03-04T00:35:16.494Z,1.85
2023-03-04T00:37:21.460Z,1.78
2023-03-04T00:39:26.252Z,1.78
2023-03-04T00:41:33.689Z,1.78
2023-03-04T00:43:38.535Z,1.82
2023-03-04T00:45:43.399Z,1.78
2023-03-04T00:47:48.190Z,1.68
2023-03-04T00:49:52.989Z,1.64
2023-03-04T00:51:57.863Z,1.60
2023-03-04T00:54:02.687Z,1.59
2023-03-04T00:56:08.209Z,1.57
2023-03-04T00:58:18.008Z,1.54
2023-03-04T01:00:23.671Z,1.59
2023-03-04T01:02:29.065Z,1.59
2023-03-04T01:04:33.882Z,1.68
2023-03-04T01:06:38.676Z,1.78
2023-03-04T01:08:44.421Z,1.74
2023-03-04T01:10:49.356Z,1.68
2023-03-04T01:12:54.166Z,1.63
2023-03-04T01:15:01.764Z,1.55
2023-03-04T01:17:06.674Z,1.46
2023-03-04T01:19:11.442Z,1.38
2023-03-04T01:21:16.810Z,1.41
2023-03-04T01:23:21.626Z,1.42
2023-03-04T01:25:26.552Z,1.45
2023-03-04T01:27:31.470Z,1.39
2023-03-04T01:29:36.226Z,1.43
2023-03-04T01:31:43.626Z,1.44
2023-03-04T01:33:48.405Z,1.39
2023-03-04T01:35:53.254Z,1.27
2023-03-04T01:37:58.248Z,1.17
2023-03-04T01:40:03.007Z,1.11
2023-03-04T01:42:07.905Z,1.06
2023-03-04T01:44:13.897Z,1.02
2023-03-04T01:46:18.863Z,0.94
2023-03-04T01:48:29.603Z,0.90
2023-03-04T01:50:36.810Z,0.81
2023-03-04T01:52:43.282Z,0.86
2023-03-04T01:54:48.080Z,0.94
2023-03-04T01:56:55.136Z,0.95
2023-03-04T01:59:11.977Z,0.98
2023-03-04T02:01:17.259Z,0.92
2023-03-04T02:03:23.013Z,0.97
2023-03-04T02:05:31.557Z,0.89
2023-03-04T02:07:36.617Z,0.89
2023-03-04T02:09:41.436Z,0.86
2023-03-04T02:11:49.246Z,0.77
2023-03-04T02:13:55.085Z,0.71
2023-03-04T02:15:59.934Z,0.68
2023-03-04T02:18:05.275Z,0.70
2023-03-04T02:20:21.201Z,0.72
2023-03-04T02:22:28.708Z,0.80
2023-03-04T02:24:38.968Z,0.90
2023-03-04T02:26:47.680Z,0.99
2023-03-04T02:28:55.096Z,1.00
2023-03-04T02:31:00.260Z,1.06
2023-03-04T02:33:05.152Z,1.10
2023-03-04T02:35:21.716Z,1.16
2023-03-04T02:37:26.674Z,1.12
2023-03-04T02:39:36.358Z,1.13
2023-03-04T02:41:44.421Z,1.15
2023-03-04T02:43:56.882Z,1.18
2023-03-04T02:46:04.296Z,1.13
2023-03-04T02:48:10.251Z,1.02
2023-03-04T02:50:15.530Z,0.93
2023-03-04T02:52:22.658Z,0.80
2023-03-04T02:54:27.865Z,0.77
2023-03-04T02:56:33.636Z,0.71
2023-03-04T02:58:38.492Z,0.65
2023-03-04T03:00:46.460Z,0.60
2023-03-04T03:02:51.585Z,0.54
2023-03-04T03:04:56.806Z,0.50
2023-03-04T03:07:04.156Z,0.55
2023-03-04T03:09:10.237Z,0.54
2023-03-04T03:11:15.170Z,0.50
2023-03-04T03:13:19.996Z,0.58
2023-03-04T03:15:25.067Z,0.66
2023-03-04T03:17:34.831Z,0.67
2023-03-04T03:19:39.611Z,0.66
2023-03-04T03:21:46.028Z,0.65
2023-03-04T03:23:50.865Z,0.64
2023-03-04T03:25:55.655Z,0.59
2023-03-04T03:28:00.410Z,0.50
2023-03-04T03:30:05.397Z,0.49
2023-03-04T03:32:10.606Z,0.55
2023-03-04T03:34:19.212Z,0.56
2023-03-04T03:36:25.680Z,0.40
2023-03-04T03:38:30.654Z,0.32
2023-03-04T03:40:35.673Z,0.38
2023-03-04T03:42:40.435Z,0.48
2023-03-04T03:44:45.344Z,0.52
2023-03-04T03:46:50.172Z,0.57
2023-03-04T03:48:54.977Z,0.59
2023-03-04T03:51:02.371Z,0.52
2023-03-04T03:53:07.325Z,0.55
2023-03-04T03:55:13.001Z,0.59
2023-03-04T03:57:17.852Z,0.53
2023-03-04T03:59:24.195Z,0.62
2023-03-04T04:01:29.017Z,0.67
2023-03-04T04:03:33.898Z,0.61
2023-03-04T04:05:38.694Z,0.60
2023-03-04T04:07:46.101Z,0.66
2023-03-04T04:09:50.864Z,0.68
2023-03-04T04:11:55.703Z,0.59
2023-03-04T04:14:00.515Z,0.62
2023-03-04T04:16:05.571Z,0.60
2023-03-04T04:18:10.476Z,0.65
2023-03-04T04:20:15.713Z,0.72
2023-03-04T04:22:21.774Z,0.75
2023-03-04T04:24:29.312Z,0.76
2023-03-04T04:26:34.108Z,0.73
2023-03-04T04:28:39.050Z,0.70
2023-03-04T04:30:44.124Z,0.82
2023-03-04T04:32:48.945Z,0.61
2023-03-04T04:34:53.715Z,0.69
2023-03-04T04:36:59.034Z,0.55
2023-03-04T04:39:03.592Z,0.61
2023-03-04T04:41:22.687Z,0.68
2023-03-04T04:43:27.748Z,0.82
2023-03-04T04:45:34.708Z,0.77
2023-03-04T04:47:39.863Z,0.76
2023-03-04T04:49:44.737Z,0.82
2023-03-04T04:51:49.515Z,0.95
2023-03-04T04:53:54.362Z,1.03
2023-03-04T04:55:59.150Z,1.11
2023-03-04T04:58:08.825Z,1.16
2023-03-04T05:00:16.015Z,1.11
2023-03-04T05:02:21.061Z,1.11
2023-03-04T05:04:25.907Z,1.11
2023-03-04T05:06:30.847Z,1.14
2023-03-04T05:08:38.984Z,1.24
2023-03-04T05:10:43.754Z,1.17
2023-03-04T05:12:49.897Z,1.17
2023-03-04T05:14:57.317Z,0.84
2023-03-04T05:17:02.181Z,0.74
2023-03-04T05:19:06.986Z,0.76
2023-03-04T05:21:12.466Z,0.86
2023-03-04T05:23:17.258Z,0.99
2023-03-04T05:25:22.061Z,0.99
2023-03-04T05:27:26.923Z,0.91
2023-03-04T05:29:31.706Z,0.96
2023-03-04T05:31:39.283Z,1.11
2023-03-04T05:33:44.188Z,1.15
2023-03-04T05:35:50.612Z,0.96
2023-03-04T05:37:55.466Z,0.75
2023-03-04T05:40:00.269Z,0.45
2023-03-04T05:42:05.304Z,0.46
2023-03-04T05:44:09.958Z,0.42
2023-03-04T05:46:16.959Z,0.28
2023-03-04T05:48:24.741Z,0.27
2023-03-04T05:50:29.805Z,0.41
2023-03-04T05:52:34.629Z,0.43
2023-03-04T05:54:39.528Z,0.47
2023-03-04T05:56:44.660Z,0.44
2023-03-04T05:58:49.840Z,0.33
2023-03-04T06:00:54.625Z,0.39
2023-03-04T06:02:59.443Z,0.34
2023-03-04T06:05:07.258Z,0.44
2023-03-04T06:07:12.046Z,0.54
2023-03-04T06:09:17.065Z,0.56
2023-03-04T06:11:21.871Z,0.50
2023-03-04T06:13:26.914Z,0.25
2023-03-04T06:15:32.381Z,0.26
2023-03-04T06:17:37.297Z,0.19
2023-03-04T06:19:42.069Z,0.03
2023-03-04T06:21:49.484Z,0.21
2023-03-04T06:23:54.258Z,0.21
2023-03-04T06:26:00.627Z,0.34
2023-03-04T06:28:05.428Z,0.40
2023-03-04T06:30:12.652Z,0.42
2023-03-04T06:32:17.460Z,0.38
2023-03-04T06:34:22.476Z,0.44
2023-03-04T06:36:27.437Z,0.38
2023-03-04T06:38:34.873Z,0.62
2023-03-04T06:40:39.731Z,0.59
2023-03-04T06:42:45.039Z,0.67
2023-03-04T06:44:51.462Z,0.70
2023-03-04T06:46:56.594Z,0.67
2023-03-04T06:49:01.980Z,0.74
2023-03-04T06:51:10.533Z,0.89
2023-03-04T06:53:16.273Z,0.80
2023-03-04T06:55:23.902Z,0.78
2023-03-04T06:57:28.735Z,0.83
2023-03-04T06:59:33.976Z,0.88
2023-03-04T07:01:38.488Z,0.97
2023-03-04T07:03:43.377Z,1.00
2023-03-04T07:05:48.378Z,1.14
2023-03-04T07:07:53.412Z,1.34
2023-03-04T07:09:58.114Z,1.36
2023-03-04T07:12:06.181Z,1.38
2023-03-04T07:14:10.947Z,1.46
2023-03-04T07:16:18.160Z,1.45
2023-03-04T07:18:23.008Z,1.45
2023-03-04T07:20:29.566Z,1.43
2023-03-04T07:22:36.902Z,1.51
2023-03-04T07:24:41.716Z,1.70
2023-03-04T07:26:46.462Z,1.78
2023-03-04T07:28:54.730Z,1.64
2023-03-04T07:30:59.510Z,1.57
2023-03-04T07:33:04.289Z,1.42
2023-03-04T07:35:10.328Z,1.39
2023-03-04T07:37:15.229Z,1.41
2023-03-04T07:39:20.052Z,1.32
2023-03-04T07:41:26.634Z,1.29
2023-03-04T07:43:31.487Z,1.29
2023-03-04T07:45:39.914Z,1.34
2023-03-04T07:47:45.142Z,1.43
2023-03-04T07:49:49.945Z,1.55
2023-03-04T07:51:54.747Z,1.49
2023-03-04T07:54:01.400Z,1.62
2023-03-04T07:56:06.845Z,1.74
2023-03-04T07:58:11.630Z,1.72
2023-03-04T08:00:19.422Z,1.64
2023-03-04T08:02:26.940Z,1.65
2023-03-04T08:04:31.862Z,1.72
2023-03-04T08:06:36.936Z,1.65
2023-03-04T08:08:43.070Z,1.70
2023-03-04T08:10:48.408Z,1.77
2023-03-04T08:12:52.937Z,1.73
2023-03-04T08:14:57.797Z,1.63
2023-03-04T08:17:02.661Z,1.73
2023-03-04T08:19:10.862Z,1.90
2023-03-04T08:21:16.220Z,1.80
2023-03-04T08:23:21.600Z,1.88
2023-03-04T08:25:26.380Z,1.92
2023-03-04T08:27:33.506Z,1.87
2023-03-04T08:29:38.240Z,1.96
2023-03-04T08:31:46.846Z,1.94
2023-03-04T08:33:53.527Z,1.92
2023-03-04T08:36:00.955Z,1.90
2023-03-04T08:38:05.764Z,1.92
2023-03-04T08:40:12.206Z,1.94
2023-03-04T08:42:17.020Z,1.96
2023-03-04T08:44:22.004Z,2.11
2023-03-04T08:46:26.853Z,2.14
2023-03-04T08:48:31.678Z,2.13
2023-03-04T08:50:37.026Z,2.19
2023-03-04T08:52:44.433Z,2.01
2023-03-04T08:54:50.300Z,1.88
2023-03-04T08:56:55.109Z,1.77
2023-03-04T08:59:00.046Z,1.89
2023-03-04T09:01:05.755Z,1.78
2023-03-04T09:03:10.690Z,1.89
2023-03-04T09:05:18.230Z,1.81
2023-03-04T09:07:23.049Z,1.84
2023-03-04T09:09:30.717Z,1.87
2023-03-04T09:11:38.314Z,1.94
2023-03-04T09:13:43.626Z,1.88
2023-03-04T09:15:49.310Z,1.99
2023-03-04T09:17:54.233Z,2.07
2023-03-04T09:19:58.972Z,2.18
2023-03-04T09:22:03.817Z,2.24
2023-03-04T09:24:09.101Z,2.33
2023-03-04T09:26:24.258Z,2.48
2023-03-04T09:28:29.167Z,2.49
2023-03-04T09:30:34.185Z,2.38
2023-03-04T09:32:39.414Z,2.48
2023-03-04T09:34:44.098Z,2.49
2023-03-04T09:36:48.916Z,2.55
2023-03-04T09:38:53.896Z,2.47
2023-03-04T09:41:10.624Z,2.51
2023-03-04T09:43:23.538Z,2.51
2023-03-04T09:45:33.159Z,2.55
2023-03-04T09:47:40.228Z,2.62
2023-03-04T09:49:48.544Z,2.68
2023-03-04T09:52:03.792Z,2.54
2023-03-04T09:54:10.754Z,2.56
2023-03-04T09:56:17.261Z,2.57
2023-03-04T09:58:36.483Z,2.66
2023-03-04T10:00:44.358Z,2.68
2023-03-04T10:03:02.765Z,2.66
2023-03-04T10:05:10.803Z,2.72
2023-03-04T10:07:21.609Z,2.75
2023-03-04T10:09:32.531Z,2.73
2023-03-04T10:11:43.706Z,2.72
2023-03-04T10:14:05.688Z,2.83
2023-03-04T10:16:18.469Z,2.81
2023-03-04T10:18:27.007Z,2.95
2023-03-04T10:20:41.847Z,2.94
2023-03-04T10:22:48.833Z,2.98
2023-03-04T10:25:00.668Z,3.05
2023-03-04T10:27:10.409Z,3.09
2023-03-04T10:29:19.840Z,3.33
2023-03-04T10:31:35.254Z,3.40
2023-03-04T10:33:42.174Z,3.41
2023-03-04T10:35:51.284Z,3.33
2023-03-04T10:37:56.555Z,3.08
2023-03-04T10:40:04.185Z,3.06
2023-03-04T10:42:25.500Z,3.11
2023-03-04T10:44:34.719Z,3.17
2023-03-04T10:46:41.466Z,3.24
2023-03-04T10:48:46.724Z,3.38
2023-03-04T10:50:51.323Z,3.49
2023-03-04T10:52:57.699Z,3.32
2023-03-04T10:55:05.325Z,3.44
2023-03-04T10:57:19.146Z,3.42
2023-03-04T10:59:41.893Z,3.47
2023-03-04T11:01:46.750Z,3.57
2023-03-04T11:03:52.269Z,3.60
2023-03-04T11:06:09.354Z,3.56
2023-03-04T11:08:22.362Z,3.50
2023-03-04T11:10:31.636Z,3.35
2023-03-04T11:12:37.798Z,3.35
2023-03-04T11:14:49.697Z,3.42
2023-03-04T11:16:59.821Z,3.44
2023-03-04T11:19:09.149Z,3.21
2023-03-04T11:21:20.433Z,3.19
2023-03-04T11:23:35.134Z,3.21
2023-03-04T11:25:44.906Z,3.21
2023-03-04T11:27:55.378Z,3.28
2023-03-04T11:30:16.249Z,3.28
2023-03-04T11:32:24.348Z,3.23
2023-03-04T11:34:40.324Z,3.23
2023-03-04T11:36:57.674Z,3.26
2023-03-04T11:39:04.768Z,3.26
2023-03-04T11:41:16.804Z,3.26
2023-03-04T11:43:27.486Z,3.20
2023-03-04T11:45:47.188Z,3.13
2023-03-04T11:48:03.347Z,3.16
2023-03-04T11:50:32.697Z,3.14
2023-03-04T11:52:56.133Z,3.15
2023-03-04T11:55:15.077Z,3.25
2023-03-04T11:57:33.575Z,3.30
2023-03-04T11:59:59.590Z,3.36
2023-03-04T12:02:25.274Z,3.26
2023-03-04T12:04:47.168Z,3.27
2023-03-04T12:07:06.818Z,3.30
2023-03-04T12:09:35.382Z,3.17
2023-03-04T12:11:51.526Z,3.20
2023-03-04T12:14:16.485Z,3.10
2023-03-04T12:16:41.208Z,3.27
2023-03-04T12:19:01.451Z,3.38
2023-03-04T12:21:28.331Z,3.43
2023-03-04T12:23:48.177Z,3.59
2023-03-04T12:26:00.554Z,3.73
2023-03-04T12:28:23.644Z,3.83
2023-03-04T12:30:41.338Z,3.91
2023-03-04T12:32:55.418Z,3.91
2023-03-04T12:35:26.064Z,3.77
2023-03-04T12:37:47.374Z,3.66
2023-03-04T12:40:08.773Z,3.57
2023-03-04T12:42:24.151Z,3.46
2023-03-04T12:44:29.510Z,3.47
2023-03-04T12:46:45.107Z,3.60
2023-03-04T12:49:03.118Z,3.59
2023-03-04T12:51:28.257Z,3.58
2023-03-04T12:53:40.827Z,3.62
2023-03-04T12:55:48.048Z,3.50
2023-03-04T12:57:53.558Z,3.51
2023-03-04T13:00:02.966Z,3.54
2023-03-04T13:02:30.455Z,3.67
2023-03-04T13:04:47.085Z,3.63
2023-03-04T13:07:12.905Z,3.62
2023-03-04T13:09:25.406Z,3.73
2023-03-04T13:11:47.346Z,3.71
2023-03-04T13:14:05.808Z,3.72
2023-03-04T13:16:34.992Z,3.78
2023-03-04T13:18:41.034Z,3.96
2023-03-04T13:20:46.050Z,3.86
2023-03-04T13:22:56.983Z,3.88
2023-03-04T13:25:05.279Z,3.98
2023-03-04T13:27:40.090Z,3.93
2023-03-04T13:29:44.991Z,4.03
2023-03-04T13:32:07.212Z,3.91
2023-03-04T13:34:49.085Z,3.79
2023-03-04T13:36:59.773Z,3.82
2023-03-04T13:39:07.201Z,3.88
2023-03-04T13:41:17.451Z,4.03
2023-03-04T13:43:41.449Z,4.20
2023-03-04T13:45:46.328Z,4.16
2023-03-04T13:47:53.739Z,4.18
2023-03-04T13:50:29.990Z,4.13
2023-03-04T13:52:44.421Z,4.23
2023-03-04T13:54:49.216Z,4.23
2023-03-04T13:57:18.743Z,4.32
2023-03-04T13:59:32.976Z,4.26
2023-03-04T14:01:50.817Z,4.16
2023-03-04T14:03:58.837Z,4.18
2023-03-04T14:06:19.924Z,4.31
2023-03-04T14:08:28.525Z,4.25
2023-03-04T14:10:33.359Z,4.19
2023-03-04T14:12:40.317Z,4.13
2023-03-04T14:14:50.517Z,4.10
2023-03-04T14:16:59.041Z,4.10
2023-03-04T14:19:09.564Z,4.03
2023-03-04T14:21:17.121Z,3.97
2023-03-04T14:23:28.374Z,3.98
2023-03-04T14:25:36.666Z,3.97
2023-03-04T14:27:41.837Z,3.99
2023-03-04T14:29:46.644Z,4.08
2023-03-04T14:31:51.731Z,4.08
2023-03-04T14:34:00.048Z,3.98
2023-03-04T14:36:08.356Z,4.02
2023-03-04T14:38:23.796Z,4.14
2023-03-04T14:40:32.937Z,4.24
2023-03-04T14:42:45.083Z,4.36
2023-03-04T14:44:52.607Z,4.28
2023-03-04T14:47:07.993Z,4.35
2023-03-04T14:49:16.323Z,4.27
2023-03-04T14:51:39.316Z,4.25
2023-03-04T14:53:56.913Z,4.22
2023-03-04T14:56:04.586Z,4.19
2023-03-04T14:58:11.125Z,4.20
2023-03-04T15:00:30.659Z,4.41
2023-03-04T15:02:42.018Z,4.26
2023-03-04T15:04:47.344Z,4.27
2023-03-04T15:06:56.581Z,4.38
2023-03-04T15:09:04.179Z,4.39
2023-03-04T15:11:10.680Z,4.43
2023-03-04T15:13:17.221Z,4.44
2023-03-04T15:15:38.235Z,4.34
2023-03-04T15:17:45.362Z,4.25
2023-03-04T15:20:01.489Z,4.20
2023-03-04T15:22:10.724Z,4.25
2023-03-04T15:24:16.356Z,4.26
2023-03-04T15:26:21.305Z,4.37
2023-03-04T15:28:27.683Z,4.32
2023-03-04T15:30:34.482Z,4.28
2023-03-04T15:32:39.336Z,4.34
2023-03-04T15:34:44.225Z,4.17
2023-03-04T15:36:51.603Z,4.18
2023-03-04T15:38:59.160Z,4.12
2023-03-04T15:41:03.977Z,4.07
2023-03-04T15:43:10.161Z,4.03
2023-03-04T15:45:24.151Z,3.94
2023-03-04T15:47:29.036Z,3.85
2023-03-04T15:49:33.846Z,3.79
2023-03-04T15:51:39.087Z,3.79
2023-03-04T15:53:45.181Z,3.70
2023-03-04T15:55:52.651Z,3.73
2023-03-04T15:58:00.249Z,3.83
2023-03-04T16:00:05.270Z,3.92
2023-03-04T16:02:23.212Z,3.88
2023-03-04T16:04:28.264Z,3.92
2023-03-04T16:06:38.197Z,3.78
2023-03-04T16:08:44.723Z,3.65
2023-03-04T16:10:53.138Z,3.62
2023-03-04T16:12:57.954Z,3.67
2023-03-04T16:15:05.029Z,3.72
2023-03-04T16:17:12.397Z,3.76
2023-03-04T16:19:17.165Z,3.79
2023-03-04T16:21:24.772Z,3.69
2023-03-04T16:23:29.658Z,3.68
2023-03-04T16:25:34.708Z,3.72
2023-03-04T16:27:42.911Z,3.79
2023-03-04T16:29:47.834Z,3.83
2023-03-04T16:31:52.638Z,3.78
2023-03-04T16:33:57.526Z,3.77
2023-03-04T16:36:04.126Z,3.81
2023-03-04T16:38:16.115Z,3.78
2023-03-04T16:40:23.534Z,3.85
2023-03-04T16:42:28.334Z,3.86
2023-03-04T16:44:37.563Z,3.81
2023-03-04T16:46:42.799Z,3.88
2023-03-04T16:48:47.373Z,3.78
2023-03-04T16:50:52.451Z,3.83
2023-03-04T16:52:59.082Z,3.79
2023-03-04T16:55:03.931Z,3.80
2023-03-04T16:57:09.311Z,3.90
2023-03-04T16:59:18.697Z,3.94
2023-03-04T17:01:27.706Z,4.10
2023-03-04T17:03:32.770Z,4.19
2023-03-04T17:05:37.604Z,4.05
2023-03-04T17:07:42.442Z,4.05
2023-03-04T17:09:47.876Z,4.02
2023-03-04T17:11:53.206Z,3.97
2023-03-04T17:13:57.747Z,3.93
2023-03-04T17:16:04.354Z,3.92
2023-03-04T17:18:12.026Z,4.02
2023-03-04T17:20:18.528Z,3.98
2023-03-04T17:22:23.698Z,3.98
2023-03-04T17:24:29.613Z,4.03
2023-03-04T17:26:34.864Z,4.03
2023-03-04T17:28:39.937Z,3.99
2023-03-04T17:30:44.761Z,3.94
2023-03-04T17:32:49.664Z,3.93
2023-03-04T17:34:57.223Z,4.01
2023-03-04T17:37:02.516Z,4.04
2023-03-04T17:39:07.272Z,3.99
2023-03-04T17:41:16.157Z,4.02
2023-03-04T17:43:21.754Z,3.96
2023-03-04T17:45:26.651Z,3.99
2023-03-04T17:47:36.072Z,3.97
2023-03-04T17:49:41.007Z,4.04
2023-03-04T17:51:48.400Z,4.09
2023-03-04T17:53:53.171Z,3.99
2023-03-04T17:56:00.189Z,3.94
2023-03-04T17:58:04.980Z,3.99
2023-03-04T18:00:11.470Z,3.87
2023-03-04T18:02:17.528Z,3.86
2023-03-04T18:04:22.435Z,3.83
2023-03-04T18:06:27.724Z,3.78
2023-03-04T18:08:37.238Z,3.79
2023-03-04T18:10:42.106Z,3.82
2023-03-04T18:12:47.499Z,3.90
2023-03-04T18:14:54.361Z,4.03
2023-03-04T18:16:59.225Z,3.99
2023-03-04T18:19:04.809Z,4.00
2023-03-04T18:21:09.956Z,4.02
2023-03-04T18:23:14.780Z,3.94
2023-03-04T18:25:22.409Z,3.90
2023-03-04T18:27:27.953Z,3.90
2023-03-04T18:29:34.276Z,3.82
2023-03-04T18:31:39.486Z,3.88
2023-03-04T18:33:44.065Z,3.66
2023-03-04T18:35:48.892Z,3.59
2023-03-04T18:37:53.916Z,3.52
2023-03-04T18:39:58.721Z,3.59
2023-03-04T18:42:06.441Z,3.55
2023-03-04T18:44:11.740Z,3.53
2023-03-04T18:46:29.617Z,3.52
2023-03-04T18:48:38.999Z,3.52
2023-03-04T18:50:43.877Z,3.56
2023-03-04T18:52:49.205Z,3.55
2023-03-04T18:54:54.034Z,3.53
2023-03-04T18:57:02.773Z,3.47
2023-03-04T18:59:16.141Z,3.43
2023-03-04T19:01:23.132Z,3.54
2023-03-04T19:03:28.308Z,3.61
2023-03-04T19:05:38.261Z,3.56
2023-03-04T19:07:43.396Z,3.52
2023-03-04T19:09:48.228Z,3.51
2023-03-04T19:11:53.158Z,3.46
2023-03-04T19:13:58.168Z,3.45
2023-03-04T19:16:05.716Z,3.50
2023-03-04T19:18:10.719Z,3.47
2023-03-04T19:20:17.520Z,3.51
2023-03-04T19:22:22.320Z,3.49
2023-03-04T19:24:27.151Z,3.51
2023-03-04T19:26:32.036Z,3.53
2023-03-04T19:28:37.035Z,3.57
2023-03-04T19:30:42.861Z,3.49
2023-03-04T19:32:50.368Z,3.46
2023-03-04T19:34:55.119Z,3.45
2023-03-04T19:37:00.001Z,3.43
2023-03-04T19:39:04.841Z,3.45
2023-03-04T19:41:13.864Z,3.34
2023-03-04T19:43:18.880Z,3.32
2023-03-04T19:45:23.801Z,3.35
2023-03-04T19:47:28.753Z,3.36
2023-03-04T19:49:37.201Z,3.38
2023-03-04T19:51:42.283Z,3.38
2023-03-04T19:53:47.722Z,3.34
2023-03-04T19:55:53.862Z,3.37
2023-03-04T19:57:58.793Z,3.39
2023-03-04T20:00:07.431Z,3.45
2023-03-04T20:02:12.280Z,3.44
2023-03-04T20:04:19.807Z,3.54
2023-03-04T20:06:28.143Z,3.56
2023-03-04T20:08:32.942Z,3.61
2023-03-04T20:10:41.100Z,3.65
2023-03-04T20:12:45.886Z,3.68
2023-03-04T20:14:51.268Z,3.70
2023-03-04T20:16:56.246Z,3.77
2023-03-04T20:19:01.662Z,3.76
2023-03-04T20:21:07.353Z,3.71
2023-03-04T20:23:20.228Z,3.77
2023-03-04T20:25:25.369Z,3.72
2023-03-04T20:27:30.185Z,3.72
2023-03-04T20:29:34.974Z,3.75
2023-03-04T20:31:41.044Z,3.79
2023-03-04T20:33:47.716Z,3.78
2023-03-04T20:35:52.641Z,3.77
2023-03-04T20:37:57.493Z,3.77
2023-03-04T20:40:04.941Z,3.82
2023-03-04T20:42:09.733Z,3.95
2023-03-04T20:44:14.586Z,3.99
2023-03-04T20:46:34.653Z,3.93
2023-03-04T20:48:39.585Z,3.94
2023-03-04T20:50:44.624Z,4.06
2023-03-04T20:52:49.454Z,4.12
2023-03-04T20:54:54.303Z,3.96
2023-03-04T20:57:01.825Z,4.02
2023-03-04T20:59:08.916Z,4.03
2023-03-04T21:01:13.915Z,4.03
2023-03-04T21:03:19.326Z,4.07
2023-03-04T21:05:24.110Z,4.10
2023-03-04T21:07:29.055Z,3.94
2023-03-04T21:09:33.957Z,3.93
2023-03-04T21:11:40.828Z,4.00
2023-03-04T21:13:53.991Z,3.99
2023-03-04T21:15:59.742Z,4.12
2023-03-04T21:18:04.567Z,4.21
2023-03-04T21:20:10.968Z,4.34
2023-03-04T21:22:18.752Z,4.41
2023-03-04T21:24:25.619Z,4.45
2023-03-04T21:26:30.491Z,4.51
2023-03-04T21:28:35.552Z,4.42
2023-03-04T21:30:43.286Z,4.48
2023-03-04T21:32:48.219Z,4.43
2023-03-04T21:34:53.672Z,4.34
2023-03-04T21:36:58.558Z,4.27
2023-03-04T21:39:03.297Z,4.32
2023-03-04T21:41:08.211Z,4.28
2023-03-04T21:43:13.041Z,4.24
2023-03-04T21:45:17.875Z,4.20
2023-03-04T21:47:25.513Z,4.16
2023-03-04T21:49:31.038Z,4.22
2023-03-04T21:51:36.246Z,4.12
2023-03-04T21:53:41.137Z,4.08
2023-03-04T21:55:45.903Z,4.02
2023-03-04T21:57:50.970Z,3.91
2023-03-04T21:59:55.751Z,3.94
2023-03-04T22:02:00.614Z,3.83
2023-03-04T22:04:08.333Z,3.72
2023-03-04T22:06:15.026Z,3.59
2023-03-04T22:08:22.638Z,3.57
2023-03-04T22:10:27.587Z,3.62
2023-03-04T22:12:32.681Z,3.68
2023-03-04T22:14:37.472Z,3.63
2023-03-04T22:16:59.035Z,3.68
2023-03-04T22:19:03.929Z,3.56
2023-03-04T22:21:13.537Z,3.59
2023-03-04T22:23:20.997Z,3.60
2023-03-04T22:25:25.801Z,3.65
2023-03-04T22:27:30.789Z,3.68
2023-03-04T22:29:38.401Z,3.67
2023-03-04T22:31:43.225Z,3.72
2023-03-04T22:33:48.700Z,3.71
2023-03-04T22:35:53.686Z,3.77
2023-03-04T22:38:01.073Z,3.76
2023-03-04T22:40:06.318Z,3.83
2023-03-04T22:42:11.600Z,3.74
2023-03-04T22:44:16.682Z,3.58
2023-03-04T22:46:24.694Z,3.56
2023-03-04T22:48:30.035Z,3.59
2023-03-04T22:50:34.744Z,3.60
2023-03-04T22:52:41.264Z,3.55
2023-03-04T22:54:48.619Z,3.55
2023-03-04T22:56:53.422Z,3.57
2023-03-04T22:58:58.251Z,3.57
2023-03-04T23:01:03.265Z,3.50
2023-03-04T23:03:08.721Z,3.43
2023-03-04T23:05:14.529Z,3.39
2023-03-04T23:07:19.506Z,3.42
2023-03-04T23:09:24.291Z,3.44
2023-03-04T23:11:35.394Z,3.48
2023-03-04T23:13:40.562Z,3.44
2023-03-04T23:15:45.829Z,3.50
2023-03-04T23:17:50.649Z,3.49
2023-03-04T23:19:55.969Z,3.49
2023-03-04T23:22:02.525Z,3.44
2023-03-04T23:24:09.558Z,3.44
2023-03-04T23:26:18.639Z,3.48
2023-03-04T23:28:26.028Z,3.41
2023-03-04T23:30:30.904Z,3.43
2023-03-04T23:32:35.913Z,3.40
2023-03-04T23:34:40.783Z,3.34
2023-03-04T23:36:45.829Z,3.30
2023-03-04T23:38:51.121Z,3.28
2023-03-04T23:40:55.935Z,3.28
2023-03-04T23:43:00.775Z,3.28
2023-03-04T23:45:09.801Z,3.31
2023-03-04T23:47:14.591Z,3.26
2023-03-04T23:49:19.440Z,3.30
2023-03-04T23:51:26.622Z,3.31
2023-03-04T23:53:33.882Z,3.35
2023-03-04T23:55:38.718Z,3.33
2023-03-04T23:57:43.455Z,3.30
2023-03-04T23:59:48.232Z,3.30
